Krusing — LHVE — position and weather

sailwx.info

Track history (hours):
 
Tides and Currents Weather Stations Pressure Air Temp Water Temp Dewpoint Dewpoint Depression Visibility Wind Speed Wind Dir Waves Ship Positions

Krusing

Last reported at 2017-Dec-08 09:22 UTC. Time now 2017-Dec-14 08:22 UTC.
Position N 62°29' E 006°07'.

Length 25 m; draft 3.5 m.

Type: Ship. MMSI: 257708500.

Date/timePositionNaut miles runAvg speedWind from/ knotsBaromVisibWave heightAir tempDewpointWater temp
2017-Dec-08 09:22N 62°29' E 006°07'1 1.6
2017-Dec-08 08:59N 62°28' E 006°07'0 0.0
2017-Dec-08 08:29N 62°28' E 006°07'0 0.0
2017-Dec-08 07:59N 62°28' E 006°07'1 2.7
2017-Dec-08 07:27N 62°29' E 006°08'3 0.2
2017-Dec-07 19:57N 62°32' E 006°07'3 5.6
2017-Dec-07 19:29N 62°34' E 006°11'45 2.3
2017-Dec-06 23:41N 63°04' E 007°24'2 8.3
2017-Dec-06 23:30N 63°05' E 007°26'4 8.4
2017-Dec-06 23:00N 63°07' E 007°34'4 8.6
2017-Dec-06 22:30N 63°09' E 007°42'4 8.5
2017-Dec-06 22:00N 63°11' E 007°50'  
2017-Dec-04 09:45N 66°57' E 013°29'4 7.0
2017-Dec-04 09:10N 66°59' E 013°37'9 7.9
2017-Dec-04 08:00N 67°05' E 013°56'4 7.9
2017-Dec-04 07:30N 67°08' E 014°01'4 8.1
2017-Dec-04 07:00N 67°12' E 014°06'4 7.6
2017-Dec-04 06:30N 67°15' E 014°12'3 6.3
2017-Dec-04 06:00N 67°17' E 014°19'1 3.0
2017-Dec-04 05:30N 67°17' E 014°23'0 0.0
2017-Dec-04 05:00N 67°17' E 014°23'0 0.0
2017-Dec-04 04:30N 67°17' E 014°23'0 0.0
2017-Dec-04 04:00N 67°17' E 014°23'0 0.0
2017-Dec-04 03:30N 67°17' E 014°23'0 0.0
2017-Dec-04 03:00N 67°17' E 014°23'0 0.0
2017-Dec-04 02:30N 67°17' E 014°23'0 0.0
2017-Dec-04 02:00N 67°17' E 014°23'0 0.0
2017-Dec-04 01:30N 67°17' E 014°23'0 0.0
2017-Dec-04 01:00N 67°17' E 014°23'0 0.0
2017-Dec-04 00:30N 67°17' E 014°23'0 0.0
2017-Dec-04 00:00N 67°17' E 014°23'0 0.0
2017-Dec-03 23:30N 67°17' E 014°23'0 0.0
2017-Dec-03 23:00N 67°17' E 014°23'0 0.0
2017-Dec-03 22:30N 67°17' E 014°23'0 0.0
2017-Dec-03 22:00N 67°17' E 014°23'0 0.0
2017-Dec-03 21:30N 67°17' E 014°23'0 0.0
2017-Dec-03 21:00N 67°17' E 014°23'0 0.0
2017-Dec-03 20:30N 67°17' E 014°23'0 0.0
2017-Dec-03 20:00N 67°17' E 014°23'0 0.0
2017-Dec-03 19:30N 67°17' E 014°23'0 0.0
2017-Dec-03 19:00N 67°17' E 014°23'0 0.0
2017-Dec-03 18:30N 67°17' E 014°23'0 0.0
2017-Dec-03 18:00N 67°17' E 014°23'0 0.0
2017-Dec-03 17:30N 67°17' E 014°23'0 0.0
2017-Dec-03 17:00N 67°17' E 014°23'0 0.0
2017-Dec-03 16:30N 67°17' E 014°23'0 0.0
2017-Dec-03 16:00N 67°17' E 014°23'0 0.0
2017-Dec-03 15:30N 67°17' E 014°23'0 0.0
2017-Dec-03 15:00N 67°17' E 014°23'0 0.0
2017-Dec-03 14:30N 67°17' E 014°23'0 0.0
2017-Dec-03 14:00N 67°17' E 014°23'0 0.0
2017-Dec-03 13:30N 67°17' E 014°23'0 0.0
2017-Dec-03 13:00N 67°17' E 014°23'0 0.0
2017-Dec-03 12:30N 67°17' E 014°23'0 0.0
2017-Dec-03 12:00N 67°17' E 014°23'0 0.0
2017-Dec-03 11:30N 67°17' E 014°23'0 0.0
2017-Dec-03 11:00N 67°17' E 014°23'0 0.0
2017-Dec-03 10:30N 67°17' E 014°23'0 0.0
2017-Dec-03 10:00N 67°17' E 014°23'0 0.0
2017-Dec-03 09:30N 67°17' E 014°23'0 0.0
2017-Dec-03 09:00N 67°17' E 014°23'0 0.0
2017-Dec-03 08:30N 67°17' E 014°23'0 0.0
2017-Dec-03 08:00N 67°17' E 014°23'0 0.0
2017-Dec-03 07:30N 67°17' E 014°23'0 0.0
2017-Dec-03 07:00N 67°17' E 014°23'0 0.0
2017-Dec-03 06:30N 67°17' E 014°23'0 0.0
2017-Dec-03 06:00N 67°17' E 014°23'0 0.0
2017-Dec-03 05:30N 67°17' E 014°23'0 0.0
2017-Dec-03 05:00N 67°17' E 014°23'0 0.0
2017-Dec-03 04:30N 67°17' E 014°23'0 0.0
2017-Dec-03 04:00N 67°17' E 014°23'0 0.0
2017-Dec-03 03:30N 67°17' E 014°23'0 0.0
2017-Dec-03 03:00N 67°17' E 014°23'0 0.0
2017-Dec-03 02:30N 67°17' E 014°23'0 0.0
2017-Dec-03 02:00N 67°17' E 014°23'0 0.0
2017-Dec-03 01:30N 67°17' E 014°23'0 0.0
2017-Dec-03 01:00N 67°17' E 014°23'0 0.0
2017-Dec-03 00:30N 67°17' E 014°23'0 0.0
2017-Dec-03 00:00N 67°17' E 014°23'0 0.0
2017-Dec-02 23:30N 67°17' E 014°23'0 0.0
2017-Dec-02 23:00N 67°17' E 014°23'0 0.0
2017-Dec-02 22:30N 67°17' E 014°23'0 0.0
2017-Dec-02 22:00N 67°17' E 014°23'0 0.0
2017-Dec-02 21:30N 67°17' E 014°23'0 0.0
2017-Dec-02 21:00N 67°17' E 014°23'0 0.0
2017-Dec-02 20:30N 67°17' E 014°23'0 0.0
2017-Dec-02 20:00N 67°17' E 014°23'0 0.0
2017-Dec-02 19:30N 67°17' E 014°23'0 0.0
2017-Dec-02 19:00N 67°17' E 014°23'0 0.0
2017-Dec-02 18:30N 67°17' E 014°23'0 0.0
2017-Dec-02 18:00N 67°17' E 014°23'0 0.0
2017-Dec-02 17:30N 67°17' E 014°23'0 0.0
2017-Dec-02 17:00N 67°17' E 014°23'0 0.0
2017-Dec-02 16:30N 67°17' E 014°23'0 0.0
2017-Dec-02 16:00N 67°17' E 014°23'0 0.0
2017-Dec-02 15:30N 67°17' E 014°23'0 0.0
2017-Dec-02 15:00N 67°17' E 014°23'0 0.0
2017-Dec-02 14:30N 67°17' E 014°23'0 0.0
2017-Dec-02 14:00N 67°17' E 014°23'0 0.0
2017-Dec-02 13:30N 67°17' E 014°23'0 0.0
2017-Dec-02 13:00N 67°17' E 014°23'0 0.0
2017-Dec-02 12:30N 67°17' E 014°23'0 0.0
2017-Dec-02 12:00N 67°17' E 014°23'0 0.0
2017-Dec-02 11:30N 67°17' E 014°23'0 0.0
2017-Dec-02 11:00N 67°17' E 014°23'0 0.0
2017-Dec-02 10:30N 67°17' E 014°23'0 0.0
2017-Dec-02 10:00N 67°17' E 014°23'0 0.0
2017-Dec-02 09:30N 67°17' E 014°23'0 0.0
2017-Dec-02 09:00N 67°17' E 014°23'0 0.0
2017-Dec-02 08:30N 67°17' E 014°23'0 0.0
2017-Dec-02 08:00N 67°17' E 014°23'0 0.0
2017-Dec-02 07:30N 67°17' E 014°23'0 0.0
2017-Dec-02 07:00N 67°17' E 014°23'0 0.0
2017-Dec-02 06:30N 67°17' E 014°23'0 0.0
2017-Dec-02 06:00N 67°17' E 014°23'0 0.0
2017-Dec-02 05:30N 67°17' E 014°23'0 0.0
2017-Dec-02 05:00N 67°17' E 014°23'0 0.0
2017-Dec-02 04:30N 67°17' E 014°23'0 0.0
2017-Dec-02 04:00N 67°17' E 014°23'0 0.0
2017-Dec-02 03:30N 67°17' E 014°23'0 0.0
2017-Dec-02 03:00N 67°17' E 014°23'0 0.0
2017-Dec-02 02:30N 67°17' E 014°23'0 0.0
2017-Dec-02 02:00N 67°17' E 014°23'0 0.0
2017-Dec-02 01:30N 67°17' E 014°23'0 0.0
2017-Dec-02 01:00N 67°17' E 014°23'0 0.0
2017-Dec-02 00:30N 67°17' E 014°23'0 0.0
2017-Dec-02 00:00N 67°17' E 014°23'0 0.0
2017-Dec-01 23:30N 67°17' E 014°23'0 0.0
2017-Dec-01 23:00N 67°17' E 014°23'0 0.0
2017-Dec-01 22:30N 67°17' E 014°23'0 0.0
2017-Dec-01 22:00N 67°17' E 014°23'0 0.0
2017-Dec-01 21:30N 67°17' E 014°23'0 0.0
2017-Dec-01 21:00N 67°17' E 014°23'0 0.0
2017-Dec-01 20:30N 67°17' E 014°23'0 0.0
2017-Dec-01 20:00N 67°17' E 014°23'0 0.0
2017-Dec-01 19:30N 67°17' E 014°23'0 0.0
2017-Dec-01 19:00N 67°17' E 014°23'0 0.0
2017-Dec-01 18:30N 67°17' E 014°23'0 0.0
2017-Dec-01 18:00N 67°17' E 014°23'0 0.0
2017-Dec-01 17:30N 67°17' E 014°23'0 0.0
2017-Dec-01 17:00N 67°17' E 014°23'0 0.0
2017-Dec-01 16:30N 67°17' E 014°23'0 0.0
2017-Dec-01 16:00N 67°17' E 014°23'0 0.0
2017-Dec-01 15:30N 67°17' E 014°23'0 0.0
2017-Dec-01 15:00N 67°17' E 014°23'0 0.0
2017-Dec-01 14:30N 67°17' E 014°23'0 0.0
2017-Dec-01 14:00N 67°17' E 014°23'0 0.0
2017-Dec-01 13:30N 67°17' E 014°23'0 0.0
2017-Dec-01 13:00N 67°17' E 014°23'0 0.0
2017-Dec-01 12:30N 67°17' E 014°23'0 0.0
2017-Dec-01 12:00N 67°17' E 014°23'0 0.0
2017-Dec-01 11:30N 67°17' E 014°23'0 0.0
2017-Dec-01 11:00N 67°17' E 014°23'0 0.0
2017-Dec-01 10:30N 67°17' E 014°23'0 0.0
2017-Dec-01 10:00N 67°17' E 014°23'0 0.0
2017-Dec-01 09:30N 67°17' E 014°23'0 0.0
2017-Dec-01 09:00N 67°17' E 014°23'0 0.0
2017-Dec-01 08:30N 67°17' E 014°23'0 0.0
2017-Dec-01 08:00N 67°17' E 014°23'0 0.0
2017-Dec-01 07:30N 67°17' E 014°23'0 0.0
2017-Dec-01 07:00N 67°17' E 014°23'0 0.0
2017-Dec-01 06:30N 67°17' E 014°23'0 0.0
2017-Dec-01 06:00N 67°17' E 014°23'0 0.0
2017-Dec-01 05:30N 67°17' E 014°23'0 0.0
2017-Dec-01 05:00N 67°17' E 014°23'0 0.0
2017-Dec-01 04:30N 67°17' E 014°23'0 0.0
2017-Dec-01 04:00N 67°17' E 014°23'0 0.0
2017-Dec-01 03:30N 67°17' E 014°23'0 0.0
2017-Dec-01 03:00N 67°17' E 014°23'0 0.0
2017-Dec-01 02:30N 67°17' E 014°23'0 0.0
2017-Dec-01 02:00N 67°17' E 014°23'0 0.0
2017-Dec-01 01:30N 67°17' E 014°23'0 0.0
2017-Dec-01 01:00N 67°17' E 014°23'0 0.0
2017-Dec-01 00:30N 67°17' E 014°23'0 0.0
2017-Dec-01 00:00N 67°17' E 014°23'0 0.0
2017-Nov-30 23:30N 67°17' E 014°23'0 0.0
2017-Nov-30 23:00N 67°17' E 014°23'0 0.0
2017-Nov-30 22:30N 67°17' E 014°23'0 0.0
2017-Nov-30 22:00N 67°17' E 014°23'0 0.0
2017-Nov-30 21:30N 67°17' E 014°23'0 0.0
2017-Nov-30 21:00N 67°17' E 014°23'0 0.0
2017-Nov-30 20:30N 67°17' E 014°23'0 0.0
2017-Nov-30 20:00N 67°17' E 014°23'0 0.0
2017-Nov-30 19:30N 67°17' E 014°23'0 0.0
2017-Nov-30 19:00N 67°17' E 014°23'0 0.0
2017-Nov-30 18:30N 67°17' E 014°23'1 1.7
2017-Nov-30 18:00N 67°17' E 014°21'4 8.4
2017-Nov-30 17:31N 67°14' E 014°13'5 8.7
2017-Nov-30 16:57N 67°10' E 014°04'  
Track history (hours):
 
Tides and Currents Weather Stations Pressure Air Temp Water Temp Dewpoint Dewpoint Depression Visibility Wind Speed Wind Dir Waves Ship Positions

Krusing

Last reported at 2017-Dec-08 09:22 UTC. Time now 2017-Dec-14 08:22 UTC.
Position N 62°29' E 006°07'.

Length 25 m; draft 3.5 m.

Type: Ship. MMSI: 257708500.

Date/timePositionNaut miles runAvg speedWind from/ knotsBaromVisibWave heightAir tempDewpointWater temp
2017-Dec-08 09:22N 62°29' E 006°07'1 1.6
2017-Dec-08 08:59N 62°28' E 006°07'0 0.0
2017-Dec-08 08:29N 62°28' E 006°07'0 0.0
2017-Dec-08 07:59N 62°28' E 006°07'1 2.7
2017-Dec-08 07:27N 62°29' E 006°08'3 0.2
2017-Dec-07 19:57N 62°32' E 006°07'3 5.6
2017-Dec-07 19:29N 62°34' E 006°11'45 2.3
2017-Dec-06 23:41N 63°04' E 007°24'2 8.3
2017-Dec-06 23:30N 63°05' E 007°26'4 8.4
2017-Dec-06 23:00N 63°07' E 007°34'4 8.6
2017-Dec-06 22:30N 63°09' E 007°42'4 8.5
2017-Dec-06 22:00N 63°11' E 007°50'  
2017-Dec-04 09:45N 66°57' E 013°29'4 7.0
2017-Dec-04 09:10N 66°59' E 013°37'9 7.9
2017-Dec-04 08:00N 67°05' E 013°56'4 7.9
2017-Dec-04 07:30N 67°08' E 014°01'4 8.1
2017-Dec-04 07:00N 67°12' E 014°06'4 7.6
2017-Dec-04 06:30N 67°15' E 014°12'3 6.3
2017-Dec-04 06:00N 67°17' E 014°19'1 3.0
2017-Dec-04 05:30N 67°17' E 014°23'0 0.0
2017-Dec-04 05:00N 67°17' E 014°23'0 0.0
2017-Dec-04 04:30N 67°17' E 014°23'0 0.0
2017-Dec-04 04:00N 67°17' E 014°23'0 0.0
2017-Dec-04 03:30N 67°17' E 014°23'0 0.0
2017-Dec-04 03:00N 67°17' E 014°23'0 0.0
2017-Dec-04 02:30N 67°17' E 014°23'0 0.0
2017-Dec-04 02:00N 67°17' E 014°23'0 0.0
2017-Dec-04 01:30N 67°17' E 014°23'0 0.0
2017-Dec-04 01:00N 67°17' E 014°23'0 0.0
2017-Dec-04 00:30N 67°17' E 014°23'0 0.0
2017-Dec-04 00:00N 67°17' E 014°23'0 0.0
2017-Dec-03 23:30N 67°17' E 014°23'0 0.0
2017-Dec-03 23:00N 67°17' E 014°23'0 0.0
2017-Dec-03 22:30N 67°17' E 014°23'0 0.0
2017-Dec-03 22:00N 67°17' E 014°23'0 0.0
2017-Dec-03 21:30N 67°17' E 014°23'0 0.0
2017-Dec-03 21:00N 67°17' E 014°23'0 0.0
2017-Dec-03 20:30N 67°17' E 014°23'0 0.0
2017-Dec-03 20:00N 67°17' E 014°23'0 0.0
2017-Dec-03 19:30N 67°17' E 014°23'0 0.0
2017-Dec-03 19:00N 67°17' E 014°23'0 0.0
2017-Dec-03 18:30N 67°17' E 014°23'0 0.0
2017-Dec-03 18:00N 67°17' E 014°23'0 0.0
2017-Dec-03 17:30N 67°17' E 014°23'0 0.0
2017-Dec-03 17:00N 67°17' E 014°23'0 0.0
2017-Dec-03 16:30N 67°17' E 014°23'0 0.0
2017-Dec-03 16:00N 67°17' E 014°23'0 0.0
2017-Dec-03 15:30N 67°17' E 014°23'0 0.0
2017-Dec-03 15:00N 67°17' E 014°23'0 0.0
2017-Dec-03 14:30N 67°17' E 014°23'0 0.0
2017-Dec-03 14:00N 67°17' E 014°23'0 0.0
2017-Dec-03 13:30N 67°17' E 014°23'0 0.0
2017-Dec-03 13:00N 67°17' E 014°23'0 0.0
2017-Dec-03 12:30N 67°17' E 014°23'0 0.0
2017-Dec-03 12:00N 67°17' E 014°23'0 0.0
2017-Dec-03 11:30N 67°17' E 014°23'0 0.0
2017-Dec-03 11:00N 67°17' E 014°23'0 0.0
2017-Dec-03 10:30N 67°17' E 014°23'0 0.0
2017-Dec-03 10:00N 67°17' E 014°23'0 0.0
2017-Dec-03 09:30N 67°17' E 014°23'0 0.0
2017-Dec-03 09:00N 67°17' E 014°23'0 0.0
2017-Dec-03 08:30N 67°17' E 014°23'0 0.0
2017-Dec-03 08:00N 67°17' E 014°23'0 0.0
2017-Dec-03 07:30N 67°17' E 014°23'0 0.0
2017-Dec-03 07:00N 67°17' E 014°23'0 0.0
2017-Dec-03 06:30N 67°17' E 014°23'0 0.0
2017-Dec-03 06:00N 67°17' E 014°23'0 0.0
2017-Dec-03 05:30N 67°17' E 014°23'0 0.0
2017-Dec-03 05:00N 67°17' E 014°23'0 0.0
2017-Dec-03 04:30N 67°17' E 014°23'0 0.0
2017-Dec-03 04:00N 67°17' E 014°23'0 0.0
2017-Dec-03 03:30N 67°17' E 014°23'0 0.0
2017-Dec-03 03:00N 67°17' E 014°23'0 0.0
2017-Dec-03 02:30N 67°17' E 014°23'0 0.0
2017-Dec-03 02:00N 67°17' E 014°23'0 0.0
2017-Dec-03 01:30N 67°17' E 014°23'0 0.0
2017-Dec-03 01:00N 67°17' E 014°23'0 0.0
2017-Dec-03 00:30N 67°17' E 014°23'0 0.0
2017-Dec-03 00:00N 67°17' E 014°23'0 0.0
2017-Dec-02 23:30N 67°17' E 014°23'0 0.0
2017-Dec-02 23:00N 67°17' E 014°23'0 0.0
2017-Dec-02 22:30N 67°17' E 014°23'0 0.0
2017-Dec-02 22:00N 67°17' E 014°23'0 0.0
2017-Dec-02 21:30N 67°17' E 014°23'0 0.0
2017-Dec-02 21:00N 67°17' E 014°23'0 0.0
2017-Dec-02 20:30N 67°17' E 014°23'0 0.0
2017-Dec-02 20:00N 67°17' E 014°23'0 0.0
2017-Dec-02 19:30N 67°17' E 014°23'0 0.0
2017-Dec-02 19:00N 67°17' E 014°23'0 0.0
2017-Dec-02 18:30N 67°17' E 014°23'0 0.0
2017-Dec-02 18:00N 67°17' E 014°23'0 0.0
2017-Dec-02 17:30N 67°17' E 014°23'0 0.0
2017-Dec-02 17:00N 67°17' E 014°23'0 0.0
2017-Dec-02 16:30N 67°17' E 014°23'0 0.0
2017-Dec-02 16:00N 67°17' E 014°23'0 0.0
2017-Dec-02 15:30N 67°17' E 014°23'0 0.0
2017-Dec-02 15:00N 67°17' E 014°23'0 0.0
2017-Dec-02 14:30N 67°17' E 014°23'0 0.0
2017-Dec-02 14:00N 67°17' E 014°23'0 0.0
2017-Dec-02 13:30N 67°17' E 014°23'0 0.0
2017-Dec-02 13:00N 67°17' E 014°23'0 0.0
2017-Dec-02 12:30N 67°17' E 014°23'0 0.0
2017-Dec-02 12:00N 67°17' E 014°23'0 0.0
2017-Dec-02 11:30N 67°17' E 014°23'0 0.0
2017-Dec-02 11:00N 67°17' E 014°23'0 0.0
2017-Dec-02 10:30N 67°17' E 014°23'0 0.0
2017-Dec-02 10:00N 67°17' E 014°23'0 0.0
2017-Dec-02 09:30N 67°17' E 014°23'0 0.0
2017-Dec-02 09:00N 67°17' E 014°23'0 0.0
2017-Dec-02 08:30N 67°17' E 014°23'0 0.0
2017-Dec-02 08:00N 67°17' E 014°23'0 0.0
2017-Dec-02 07:30N 67°17' E 014°23'0 0.0
2017-Dec-02 07:00N 67°17' E 014°23'0 0.0
2017-Dec-02 06:30N 67°17' E 014°23'0 0.0
2017-Dec-02 06:00N 67°17' E 014°23'0 0.0
2017-Dec-02 05:30N 67°17' E 014°23'0 0.0
2017-Dec-02 05:00N 67°17' E 014°23'0 0.0
2017-Dec-02 04:30N 67°17' E 014°23'0 0.0
2017-Dec-02 04:00N 67°17' E 014°23'0 0.0
2017-Dec-02 03:30N 67°17' E 014°23'0 0.0
2017-Dec-02 03:00N 67°17' E 014°23'0 0.0
2017-Dec-02 02:30N 67°17' E 014°23'0 0.0
2017-Dec-02 02:00N 67°17' E 014°23'0 0.0
2017-Dec-02 01:30N 67°17' E 014°23'0 0.0
2017-Dec-02 01:00N 67°17' E 014°23'0 0.0
2017-Dec-02 00:30N 67°17' E 014°23'0 0.0
2017-Dec-02 00:00N 67°17' E 014°23'0 0.0
2017-Dec-01 23:30N 67°17' E 014°23'0 0.0
2017-Dec-01 23:00N 67°17' E 014°23'0 0.0
2017-Dec-01 22:30N 67°17' E 014°23'0 0.0
2017-Dec-01 22:00N 67°17' E 014°23'0 0.0
2017-Dec-01 21:30N 67°17' E 014°23'0 0.0
2017-Dec-01 21:00N 67°17' E 014°23'0 0.0
2017-Dec-01 20:30N 67°17' E 014°23'0 0.0
2017-Dec-01 20:00N 67°17' E 014°23'0 0.0
2017-Dec-01 19:30N 67°17' E 014°23'0 0.0
2017-Dec-01 19:00N 67°17' E 014°23'0 0.0
2017-Dec-01 18:30N 67°17' E 014°23'0 0.0
2017-Dec-01 18:00N 67°17' E 014°23'0 0.0
2017-Dec-01 17:30N 67°17' E 014°23'0 0.0
2017-Dec-01 17:00N 67°17' E 014°23'0 0.0
2017-Dec-01 16:30N 67°17' E 014°23'0 0.0
2017-Dec-01 16:00N 67°17' E 014°23'0 0.0
2017-Dec-01 15:30N 67°17' E 014°23'0 0.0
2017-Dec-01 15:00N 67°17' E 014°23'0 0.0
2017-Dec-01 14:30N 67°17' E 014°23'0 0.0
2017-Dec-01 14:00N 67°17' E 014°23'0 0.0
2017-Dec-01 13:30N 67°17' E 014°23'0 0.0
2017-Dec-01 13:00N 67°17' E 014°23'0 0.0
2017-Dec-01 12:30N 67°17' E 014°23'0 0.0
2017-Dec-01 12:00N 67°17' E 014°23'0 0.0
2017-Dec-01 11:30N 67°17' E 014°23'0 0.0
2017-Dec-01 11:00N 67°17' E 014°23'0 0.0
2017-Dec-01 10:30N 67°17' E 014°23'0 0.0
2017-Dec-01 10:00N 67°17' E 014°23'0 0.0
2017-Dec-01 09:30N 67°17' E 014°23'0 0.0
2017-Dec-01 09:00N 67°17' E 014°23'0 0.0
2017-Dec-01 08:30N 67°17' E 014°23'0 0.0
2017-Dec-01 08:00N 67°17' E 014°23'0 0.0
2017-Dec-01 07:30N 67°17' E 014°23'0 0.0
2017-Dec-01 07:00N 67°17' E 014°23'0 0.0
2017-Dec-01 06:30N 67°17' E 014°23'0 0.0
2017-Dec-01 06:00N 67°17' E 014°23'0 0.0
2017-Dec-01 05:30N 67°17' E 014°23'0 0.0
2017-Dec-01 05:00N 67°17' E 014°23'0 0.0
2017-Dec-01 04:30N 67°17' E 014°23'0 0.0
2017-Dec-01 04:00N 67°17' E 014°23'0 0.0
2017-Dec-01 03:30N 67°17' E 014°23'0 0.0
2017-Dec-01 03:00N 67°17' E 014°23'0 0.0
2017-Dec-01 02:30N 67°17' E 014°23'0 0.0
2017-Dec-01 02:00N 67°17' E 014°23'0 0.0
2017-Dec-01 01:30N 67°17' E 014°23'0 0.0
2017-Dec-01 01:00N 67°17' E 014°23'0 0.0
2017-Dec-01 00:30N 67°17' E 014°23'0 0.0
2017-Dec-01 00:00N 67°17' E 014°23'0 0.0
2017-Nov-30 23:30N 67°17' E 014°23'0 0.0
2017-Nov-30 23:00N 67°17' E 014°23'0 0.0
2017-Nov-30 22:30N 67°17' E 014°23'0 0.0
2017-Nov-30 22:00N 67°17' E 014°23'0 0.0
2017-Nov-30 21:30N 67°17' E 014°23'0 0.0
2017-Nov-30 21:00N 67°17' E 014°23'0 0.0
2017-Nov-30 20:30N 67°17' E 014°23'0 0.0
2017-Nov-30 20:00N 67°17' E 014°23'0 0.0
2017-Nov-30 19:30N 67°17' E 014°23'0 0.0
2017-Nov-30 19:00N 67°17' E 014°23'0 0.0
2017-Nov-30 18:30N 67°17' E 014°23'1 1.7
2017-Nov-30 18:00N 67°17' E 014°21'4 8.4
2017-Nov-30 17:31N 67°14' E 014°13'5 8.7
2017-Nov-30 16:57N 67°10' E 014°04'  

Dump ship's entire track history